Ernabella Airport


Codes: YERN/ERB
Name: Ernabella Airport
City:
Country: Australia
Elevation: 707 ft.

Photos at Ernabella Airport


   Photos courtesy of SpottingLog. You can add your own sightings and photos by signing up for a free trial today.



No photos found.

Weather at Ernabella Airport


Time (UTC)DescriptionTempratureWindCloud coverageVisibilityPressureHumidity
17-Jun-2024 06:00Clear Sky22°C11 mph, NW8%10000m1019hPa30%
17-Jun-2024 09:00Few Clouds20°C7 mph, NW13%10000m1019hPa34%
17-Jun-2024 12:00Scattered Clouds19°C7 mph, NW40%10000m1019hPa38%
17-Jun-2024 15:00Overcast Clouds19°C4 mph, NW95%10000m1019hPa38%
17-Jun-2024 18:00Overcast Clouds17°C2 mph, SW96%10000m1018hPa44%
17-Jun-2024 21:00Overcast Clouds15°C2 mph, W100%10000m1018hPa49%
18-Jun-2024 00:00Overcast Clouds19°C4 mph, NW100%10000m1019hPa37%
18-Jun-2024 03:00Overcast Clouds22°C4 mph, NW100%10000m1017hPa30%
18-Jun-2024 06:00Overcast Clouds24°C9 mph, W100%10000m1014hPa27%
18-Jun-2024 09:00Overcast Clouds22°C7 mph, SW99%10000m1016hPa35%
18-Jun-2024 12:00Overcast Clouds18°C9 mph, SW97%10000m1018hPa59%
18-Jun-2024 15:00Overcast Clouds16°C7 mph, S94%10000m1018hPa62%
18-Jun-2024 18:00Overcast Clouds16°C2 mph, S97%10000m1018hPa61%
18-Jun-2024 21:00Overcast Clouds16°C2 mph, S100%10000m1017hPa62%
19-Jun-2024 00:00Overcast Clouds15°C9 mph, S97%10000m1020hPa70%
19-Jun-2024 03:00Light Rain14°C9 mph, SW99%10000m1020hPa85%
19-Jun-2024 06:00Light Rain14°C9 mph, S100%10000m1019hPa80%
19-Jun-2024 09:00Overcast Clouds15°C9 mph, S100%10000m1020hPa60%
19-Jun-2024 12:00Overcast Clouds12°C11 mph, S100%10000m1022hPa55%
19-Jun-2024 15:00Overcast Clouds10°C11 mph, S100%10000m1023hPa67%
19-Jun-2024 18:00Overcast Clouds9°C13 mph, S100%10000m1023hPa68%
19-Jun-2024 21:00Overcast Clouds7°C9 mph, S100%10000m1025hPa78%
20-Jun-2024 00:00Overcast Clouds8°C9 mph, S93%10000m1027hPa69%
20-Jun-2024 03:00Overcast Clouds12°C13 mph, S100%10000m1025hPa48%
20-Jun-2024 06:00Overcast Clouds13°C16 mph, S100%10000m1023hPa39%
20-Jun-2024 09:00Overcast Clouds11°C11 mph, S100%10000m1025hPa47%
20-Jun-2024 12:00Overcast Clouds9°C9 mph, S100%10000m1027hPa57%
20-Jun-2024 15:00Overcast Clouds7°C4 mph, S99%10000m1027hPa74%
20-Jun-2024 18:00Broken Clouds6°C7 mph, S74%10000m1027hPa77%
20-Jun-2024 21:00Scattered Clouds5°C4 mph, SE27%10000m1029hPa85%
21-Jun-2024 00:00Few Clouds8°C9 mph, SE14%10000m1029hPa72%
21-Jun-2024 03:00Clear Sky12°C11 mph, SE0%10000m1027hPa49%
21-Jun-2024 06:00Clear Sky14°C11 mph, SE1%10000m1025hPa39%
21-Jun-2024 09:00Clear Sky11°C9 mph, SE0%10000m1027hPa45%
21-Jun-2024 12:00Clear Sky8°C7 mph, SE0%10000m1029hPa50%
21-Jun-2024 15:00Clear Sky7°C4 mph, E0%10000m1029hPa54%
21-Jun-2024 18:00Clear Sky5°C4 mph, E0%10000m1029hPa61%
21-Jun-2024 21:00Clear Sky5°C4 mph, E0%10000m1030hPa73%
22-Jun-2024 00:00Clear Sky9°C9 mph, E0%10000m1029hPa66%
22-Jun-2024 03:00Clear Sky14°C13 mph, NE0%10000m1027hPa43%